Time;durP1;ratioP1;P1;durP2;ratioP2;P2;SDS_P1;SDS_P2;PMS_P1;PMS_P2;Temp;Humidity;BMP_temperature;BMP_pressure;BME280_temperature;BME280_humidity;BME280_pressure;Samples;Min_cycle;Max_cycle;Signal;HPM_P1;HPM_P2
2022/11/16 00:01:16;;;;;;;60.42;35.92;;;;;;;;;;10028351;28;20053;-72
2022/11/16 00:06:11;;;;;;;63.25;37.13;;;;;;;;;;10034537;28;20092;-73
2022/11/16 00:11:18;;;;;;;57.78;36.90;;;;;;;;;;10036556;28;20057;-72
2022/11/16 00:16:16;;;;;;;61.53;36.58;;;;;;;;;;10038548;28;20552;-73
2022/11/16 00:21:10;;;;;;;55.88;33.63;;;;;;;;;;10044179;28;20061;-73
2022/11/16 00:26:06;;;;;;;53.92;34.03;;;;;;;;;;10037524;28;20468;-73
2022/11/16 00:31:02;;;;;;;58.67;32.55;;;;;;;;;;10036649;28;20058;-72
2022/11/16 00:35:56;;;;;;;51.13;32.20;;;;;;;;;;10034278;28;20050;-73
2022/11/16 00:40:49;;;;;;;51.42;32.85;;;;;;;;;;10034326;28;20522;-73
2022/11/16 00:45:43;;;;;;;53.00;33.55;;;;;;;;;;10033773;28;20057;-73
2022/11/16 00:50:36;;;;;;;62.15;34.75;;;;;;;;;;10033243;28;20054;-73
2022/11/16 00:55:30;;;;;;;61.03;34.72;;;;;;;;;;10031867;28;20050;-73
2022/11/16 01:00:24;;;;;;;62.28;36.22;;;;;;;;;;10031165;28;20049;-73
2022/11/16 01:05:18;;;;;;;67.78;38.40;;;;;;;;;;10054773;28;20147;-73
2022/11/16 01:10:14;;;;;;;60.97;37.35;;;;;;;;;;10036271;28;20054;-73
2022/11/16 01:15:09;;;;;;;57.47;37.20;;;;;;;;;;10030598;28;20141;-73
2022/11/16 01:20:05;;;;;;;60.65;36.08;;;;;;;;;;10038340;28;20045;-73
2022/11/16 01:24:59;;;;;;;53.38;32.63;;;;;;;;;;10032460;28;20049;-74
2022/11/16 01:29:53;;;;;;;53.92;33.63;;;;;;;;;;10031693;28;20141;-73
2022/11/16 01:34:46;;;;;;;54.17;33.72;;;;;;;;;;10030294;28;20049;-73
2022/11/16 01:39:51;;;;;;;50.47;32.63;;;;;;;;;;10031018;28;20062;-73
2022/11/16 01:44:45;;;;;;;49.88;32.63;;;;;;;;;;10033040;28;20052;-71
2022/11/16 01:49:56;;;;;;;51.35;33.30;;;;;;;;;;10028855;28;20050;-71
2022/11/16 01:54:56;;;;;;;59.05;33.67;;;;;;;;;;10013622;28;20400;-71
2022/11/16 01:59:58;;;;;;;54.55;31.88;;;;;;;;;;10028609;28;20053;-71
2022/11/16 02:05:05;;;;;;;52.25;32.53;;;;;;;;;;10051326;28;20046;-71
2022/11/16 02:10:43;;;;;;;52.15;33.65;;;;;;;;;;10032191;28;20536;-71
2022/11/16 02:15:43;;;;;;;51.88;31.30;;;;;;;;;;10020996;28;20141;-71
2022/11/16 02:21:20;;;;;;;55.78;32.40;;;;;;;;;;10013152;28;20053;-70
2022/11/16 02:26:17;;;;;;;49.70;31.65;;;;;;;;;;10023680;28;20058;-71
2022/11/16 02:31:14;;;;;;;50.53;30.85;;;;;;;;;;10028577;28;20124;-70
2022/11/16 02:36:10;;;;;;;53.30;33.43;;;;;;;;;;10035541;28;20054;-72
2022/11/16 02:41:07;;;;;;;54.30;32.55;;;;;;;;;;10027970;28;20083;-71
2022/11/16 02:46:04;;;;;;;54.85;31.60;;;;;;;;;;10019474;28;20046;-71
2022/11/16 02:50:57;;;;;;;56.42;32.67;;;;;;;;;;10030266;28;20046;-74
2022/11/16 02:55:51;;;;;;;53.58;33.22;;;;;;;;;;10041570;28;20046;-73
2022/11/16 03:00:50;;;;;;;48.17;29.80;;;;;;;;;;10030460;28;20542;-74
2022/11/16 03:05:54;;;;;;;49.88;31.27;;;;;;;;;;10031295;28;20038;-73
2022/11/16 03:16:55;;;;;;;45.15;29.35;;;;;;;;;;10039488;28;20046;-74
2022/11/16 03:22:15;;;;;;;54.83;29.67;;;;;;;;;;10035113;28;20050;-73
2022/11/16 03:27:28;;;;;;;48.95;28.60;;;;;;;;;;10036138;28;20831;-72
2022/11/16 03:32:42;;;;;;;46.28;29.17;;;;;;;;;;10011252;28;20046;-73
2022/11/16 03:37:36;;;;;;;46.08;28.95;;;;;;;;;;10034898;28;20076;-73
2022/11/16 03:42:29;;;;;;;51.53;31.67;;;;;;;;;;10024598;28;20049;-72
2022/11/16 03:47:24;;;;;;;51.95;31.17;;;;;;;;;;10040478;28;20050;-74
2022/11/16 03:52:18;;;;;;;49.10;30.05;;;;;;;;;;10036303;28;20057;-72
2022/11/16 03:57:17;;;;;;;52.45;30.40;;;;;;;;;;10053196;28;20148;-75
2022/11/16 04:02:17;;;;;;;49.55;30.13;;;;;;;;;;10056052;28;20053;-77
2022/11/16 04:28:16;;;;;;;38.72;25.33;;;;;;;;;;10024699;28;20526;-74
2022/11/16 04:38:31;;;;;;;47.97;28.27;;;;;;;;;;10014515;28;20048;-72
2022/11/16 04:43:25;;;;;;;54.13;31.65;;;;;;;;;;10035840;28;20057;-74
2022/11/16 04:48:19;;;;;;;53.75;32.78;;;;;;;;;;10033300;28;20124;-75
2022/11/16 04:53:16;;;;;;;54.33;33.58;;;;;;;;;;10050355;28;20050;-74
2022/11/16 04:58:15;;;;;;;65.72;33.55;;;;;;;;;;10037219;28;20112;-75
2022/11/16 05:03:10;;;;;;;49.03;31.17;;;;;;;;;;10042356;28;20069;-74
2022/11/16 05:08:05;;;;;;;58.97;31.98;;;;;;;;;;10028139;28;20049;-74
2022/11/16 05:13:00;;;;;;;59.35;30.13;;;;;;;;;;10032712;28;20119;-71
2022/11/16 05:17:54;;;;;;;47.00;29.15;;;;;;;;;;10026400;28;20041;-70
2022/11/16 05:22:53;;;;;;;50.80;27.80;;;;;;;;;;10033815;28;20101;-70
2022/11/16 05:27:49;;;;;;;48.67;29.88;;;;;;;;;;10030279;28;20064;-70
2022/11/16 05:32:42;;;;;;;44.85;27.95;;;;;;;;;;10024700;28;20050;-71
2022/11/16 05:37:37;;;;;;;46.67;25.20;;;;;;;;;;10028494;28;20049;-69
2022/11/16 05:42:31;;;;;;;35.05;22.83;;;;;;;;;;10042224;28;20180;-71
2022/11/16 05:47:26;;;;;;;30.92;21.98;;;;;;;;;;10028952;28;20054;-73
2022/11/16 05:52:22;;;;;;;30.92;21.35;;;;;;;;;;10031132;28;20049;-73
2022/11/16 05:57:16;;;;;;;26.35;20.15;;;;;;;;;;10039749;28;20053;-72
2022/11/16 06:02:10;;;;;;;26.35;20.02;;;;;;;;;;10054417;28;20045;-72
2022/11/16 06:07:04;;;;;;;24.38;18.98;;;;;;;;;;10051571;28;20041;-75
2022/11/16 06:11:59;;;;;;;28.27;21.80;;;;;;;;;;10046593;28;20045;-75
2022/11/16 06:16:53;;;;;;;26.33;19.90;;;;;;;;;;10033536;28;20100;-76
2022/11/16 06:21:47;;;;;;;25.08;18.88;;;;;;;;;;10025853;28;20156;-75
2022/11/16 06:26:45;;;;;;;22.85;18.52;;;;;;;;;;10025762;28;20081;-76
2022/11/16 06:31:39;;;;;;;26.70;20.00;;;;;;;;;;10026439;28;20053;-77
2022/11/16 06:36:33;;;;;;;22.20;17.23;;;;;;;;;;10025335;28;20086;-75
2022/11/16 06:41:27;;;;;;;25.02;18.38;;;;;;;;;;10024811;28;20046;-75
2022/11/16 06:46:21;;;;;;;23.85;18.08;;;;;;;;;;10052633;28;20042;-76
2022/11/16 06:51:16;;;;;;;23.77;18.10;;;;;;;;;;10049784;28;20493;-76
2022/11/16 06:56:13;;;;;;;28.45;20.30;;;;;;;;;;10041846;28;20069;-75
2022/11/16 07:01:11;;;;;;;22.48;17.58;;;;;;;;;;10014789;28;20046;-75
2022/11/16 07:06:12;;;;;;;24.83;19.13;;;;;;;;;;10032660;28;20049;-75
2022/11/16 07:11:09;;;;;;;23.88;17.27;;;;;;;;;;10037726;28;20053;-75
2022/11/16 07:16:04;;;;;;;27.27;18.73;;;;;;;;;;10028766;28;20511;-74
2022/11/16 07:20:58;;;;;;;24.52;17.63;;;;;;;;;;10028438;28;20060;-74
2022/11/16 07:25:52;;;;;;;22.50;17.88;;;;;;;;;;10050252;28;20042;-75
2022/11/16 07:31:00;;;;;;;24.10;16.40;;;;;;;;;;10032824;28;20108;-75
2022/11/16 07:36:10;;;;;;;24.15;18.40;;;;;;;;;;10030792;28;20046;-75
2022/11/16 07:41:08;;;;;;;20.60;15.07;;;;;;;;;;10036781;28;20519;-75
2022/11/16 07:46:14;;;;;;;18.95;15.68;;;;;;;;;;10043564;28;20065;-75
2022/11/16 07:51:28;;;;;;;19.55;14.82;;;;;;;;;;10039065;28;20072;-73
2022/11/16 07:56:41;;;;;;;18.00;14.30;;;;;;;;;;9989531;28;20069;-75
2022/11/16 08:01:40;;;;;;;16.98;12.95;;;;;;;;;;10035202;28;20475;-74
2022/11/16 08:06:35;;;;;;;17.02;13.45;;;;;;;;;;10037694;28;20508;-74
2022/11/16 08:11:28;;;;;;;14.35;11.15;;;;;;;;;;10027464;28;20050;-73
2022/11/16 08:16:22;;;;;;;14.68;11.88;;;;;;;;;;10024350;28;20061;-74
2022/11/16 08:21:24;;;;;;;12.20;10.30;;;;;;;;;;10017553;28;20455;-73
2022/11/16 08:26:20;;;;;;;13.13;11.13;;;;;;;;;;10032791;28;20045;-74
2022/11/16 08:31:25;;;;;;;12.43;10.75;;;;;;;;;;10026883;28;20076;-73
2022/11/16 08:36:25;;;;;;;12.65;10.82;;;;;;;;;;10032436;28;20104;-74
2022/11/16 08:41:19;;;;;;;12.02;10.27;;;;;;;;;;10031508;28;20042;-74
2022/11/16 08:46:16;;;;;;;11.75;10.40;;;;;;;;;;10032482;28;20045;-74
2022/11/16 08:51:18;;;;;;;13.65;10.23;;;;;;;;;;10043069;28;20420;-75
2022/11/16 08:56:19;;;;;;;12.98;11.25;;;;;;;;;;10034995;28;20057;-74
2022/11/16 09:01:33;;;;;;;12.35;10.35;;;;;;;;;;10047217;28;20109;-75
2022/11/16 09:06:27;;;;;;;11.20;10.00;;;;;;;;;;10049449;28;20520;-74
2022/11/16 09:11:22;;;;;;;11.75;10.48;;;;;;;;;;10035374;28;20153;-74
2022/11/16 09:16:16;;;;;;;13.32;10.13;;;;;;;;;;10040234;28;20046;-74
2022/11/16 09:21:10;;;;;;;12.30;10.23;;;;;;;;;;10041061;28;20053;-74
2022/11/16 09:26:06;;;;;;;13.35;10.88;;;;;;;;;;10052240;28;20156;-74
2022/11/16 09:31:04;;;;;;;12.32;11.13;;;;;;;;;;10044246;28;20054;-74
2022/11/16 09:36:06;;;;;;;12.05;10.45;;;;;;;;;;10033609;28;20046;-74
2022/11/16 09:41:13;;;;;;;11.35;10.15;;;;;;;;;;10034997;28;20054;-75
2022/11/16 09:46:33;;;;;;;11.25;9.57;;;;;;;;;;10049143;28;20040;-75
2022/11/16 09:51:28;;;;;;;12.13;10.50;;;;;;;;;;10031693;28;20505;-74
2022/11/16 09:56:26;;;;;;;10.13;9.13;;;;;;;;;;10036588;28;20049;-74
2022/11/16 10:01:36;;;;;;;10.70;8.93;;;;;;;;;;10044695;28;20738;-75
2022/11/16 10:06:54;;;;;;;9.95;8.05;;;;;;;;;;10042898;28;20042;-75
2022/11/16 10:11:58;;;;;;;9.82;8.25;;;;;;;;;;10030117;28;20516;-74
2022/11/16 10:17:06;;;;;;;10.98;9.68;;;;;;;;;;10044858;28;20041;-74
2022/11/16 10:22:02;;;;;;;19.30;8.07;;;;;;;;;;10032562;28;20053;-74
2022/11/16 10:27:10;;;;;;;9.13;8.25;;;;;;;;;;10029687;28;20107;-74
2022/11/16 10:32:09;;;;;;;8.40;7.53;;;;;;;;;;10028422;28;20053;-74
2022/11/16 10:37:03;;;;;;;;;;;;;;;;;;10031980;28;20061;-72
2022/11/16 10:42:03;;;;;;;8.45;7.65;;;;;;;;;;10035617;28;20020;-72
2022/11/16 10:47:05;;;;;;;8.05;7.30;;;;;;;;;;10046410;28;20060;-72
2022/11/16 10:52:06;;;;;;;8.50;6.72;;;;;;;;;;10032785;28;20078;-72
2022/11/16 10:57:03;;;;;;;8.77;7.72;;;;;;;;;;10046446;28;20115;-71
2022/11/16 11:01:58;;;;;;;8.27;7.47;;;;;;;;;;10034148;28;20050;-72
2022/11/16 11:07:13;;;;;;;9.30;6.90;;;;;;;;;;10040044;28;20161;-72
2022/11/16 11:12:36;;;;;;;8.02;7.22;;;;;;;;;;10034245;28;20050;-73
2022/11/16 11:17:31;;;;;;;8.07;7.20;;;;;;;;;;10029370;28;20073;-74
2022/11/16 11:22:26;;;;;;;7.93;7.05;;;;;;;;;;10049151;28;20140;-71
2022/11/16 11:27:24;;;;;;;7.00;6.30;;;;;;;;;;10029867;28;20057;-71
2022/11/16 11:32:18;;;;;;;7.68;6.90;;;;;;;;;;10037273;28;20053;-72
2022/11/16 11:37:23;;;;;;;7.10;6.40;;;;;;;;;;10042387;28;20407;-72
2022/11/16 11:42:15;;;;;;;7.22;6.07;;;;;;;;;;10040188;28;20041;-72
2022/11/16 11:47:32;;;;;;;8.70;5.68;;;;;;;;;;10034717;28;20085;-67
2022/11/16 11:53:02;;;;;;;8.40;5.95;;;;;;;;;;10036128;28;20076;-66
2022/11/16 11:58:00;;;;;;;11.75;7.07;;;;;;;;;;10040891;28;20046;-67
2022/11/16 12:03:34;;;;;;;8.57;7.68;;;;;;;;;;10047785;28;20045;-68
2022/11/16 12:08:57;;;;;;;6.15;5.60;;;;;;;;;;10049284;28;20084;-67
2022/11/16 12:13:59;;;;;;;6.07;5.47;;;;;;;;;;10035631;28;20046;-67
2022/11/16 12:19:31;;;;;;;6.95;6.00;;;;;;;;;;10033051;28;20085;-66
2022/11/16 12:24:41;;;;;;;7.22;6.63;;;;;;;;;;10009131;28;20141;-66
2022/11/16 12:29:59;;;;;;;10.05;6.88;;;;;;;;;;10039920;28;20092;-66
2022/11/16 12:35:12;;;;;;;7.75;6.80;;;;;;;;;;10040329;28;20136;-68
2022/11/16 12:40:35;;;;;;;6.57;5.88;;;;;;;;;;10029066;28;20046;-67
2022/11/16 12:46:10;;;;;;;7.90;7.20;;;;;;;;;;10031094;28;20054;-67
2022/11/16 12:51:41;;;;;;;7.75;6.60;;;;;;;;;;10026396;28;20137;-67
2022/11/16 12:56:37;;;;;;;7.70;6.88;;;;;;;;;;10028107;28;20100;-67
2022/11/16 13:02:11;;;;;;;9.30;8.00;;;;;;;;;;10031037;28;20045;-67
2022/11/16 13:07:31;;;;;;;8.15;7.35;;;;;;;;;;10039036;28;20042;-67
2022/11/16 13:12:31;;;;;;;7.85;7.13;;;;;;;;;;10036846;28;20056;-67
2022/11/16 13:17:34;;;;;;;7.65;6.88;;;;;;;;;;10041721;28;20497;-67
2022/11/16 13:22:34;;;;;;;7.43;6.65;;;;;;;;;;10032174;28;20053;-67
2022/11/16 13:28:07;;;;;;;8.37;7.47;;;;;;;;;;10053192;28;20052;-67
2022/11/16 13:33:17;;;;;;;7.88;7.18;;;;;;;;;;10034817;28;20136;-67
2022/11/16 13:38:12;;;;;;;8.90;8.00;;;;;;;;;;10039567;28;20128;-63
2022/11/16 13:43:13;;;;;;;8.60;7.80;;;;;;;;;;10035264;28;20052;-64
2022/11/16 13:48:21;;;;;;;8.38;7.57;;;;;;;;;;10030890;28;20074;-63
2022/11/16 13:53:24;;;;;;;8.60;7.70;;;;;;;;;;10034603;28;20046;-63
2022/11/16 13:58:44;;;;;;;8.20;7.38;;;;;;;;;;10047419;28;20061;-62
2022/11/16 14:03:38;;;;;;;8.55;7.75;;;;;;;;;;10039206;28;20049;-63
2022/11/16 14:08:32;;;;;;;10.18;7.60;;;;;;;;;;10029381;28;20385;-62
2022/11/16 14:13:29;;;;;;;8.23;7.47;;;;;;;;;;10033984;28;20050;-62
2022/11/16 14:18:35;;;;;;;9.70;8.23;;;;;;;;;;10048135;28;20053;-62
2022/11/16 14:24:06;;;;;;;11.63;9.20;;;;;;;;;;10039475;28;20128;-62
2022/11/16 14:29:14;;;;;;;9.60;8.63;;;;;;;;;;10032849;28;20054;-62
2022/11/16 14:34:16;;;;;;;10.07;9.15;;;;;;;;;;10034647;28;20378;-62
2022/11/16 14:39:26;;;;;;;10.43;9.40;;;;;;;;;;10025684;28;20526;-62
2022/11/16 14:44:22;;;;;;;11.43;8.27;;;;;;;;;;10025321;28;20056;-63
2022/11/16 14:49:20;;;;;;;9.45;8.55;;;;;;;;;;10026286;28;20054;-62
2022/11/16 14:54:18;;;;;;;9.70;8.80;;;;;;;;;;10026935;28;20535;-62
2022/11/16 14:59:16;;;;;;;10.38;9.27;;;;;;;;;;10028064;28;20062;-62
2022/11/16 15:04:10;;;;;;;8.70;7.90;;;;;;;;;;10026878;28;20072;-63
2022/11/16 15:09:05;;;;;;;10.75;9.25;;;;;;;;;;10025182;28;20042;-62
2022/11/16 15:14:05;;;;;;;11.27;10.27;;;;;;;;;;10028514;28;20129;-62
2022/11/16 15:19:01;;;;;;;10.25;9.25;;;;;;;;;;10031252;28;20053;-62
2022/11/16 15:23:55;;;;;;;11.93;10.73;;;;;;;;;;10030473;28;20085;-62
2022/11/16 15:29:14;;;;;;;11.63;10.45;;;;;;;;;;10033423;28;20412;-62
2022/11/16 15:34:12;;;;;;;10.25;9.25;;;;;;;;;;10027456;28;20054;-62
2022/11/16 15:39:11;;;;;;;11.88;9.10;;;;;;;;;;10032524;28;20054;-62
2022/11/16 15:44:04;;;;;;;12.45;9.27;;;;;;;;;;10026140;28;20117;-61
2022/11/16 15:49:26;;;;;;;10.93;9.63;;;;;;;;;;10034098;28;20053;-62
2022/11/16 15:54:29;;;;;;;12.75;10.95;;;;;;;;;;10025581;28;20061;-62
2022/11/16 15:59:29;;;;;;;15.30;12.20;;;;;;;;;;10022417;28;20060;-63
2022/11/16 16:04:22;;;;;;;15.05;11.43;;;;;;;;;;10026652;28;20111;-62
2022/11/16 16:09:36;;;;;;;12.07;10.88;;;;;;;;;;10028899;28;20053;-62
2022/11/16 16:14:29;;;;;;;12.27;11.07;;;;;;;;;;10025477;28;20104;-62
2022/11/16 16:19:26;;;;;;;13.40;12.00;;;;;;;;;;10026702;28;20144;-62
2022/11/16 16:24:42;;;;;;;12.00;10.82;;;;;;;;;;10028569;28;20050;-62
2022/11/16 16:29:36;;;;;;;14.52;11.98;;;;;;;;;;10017079;28;20054;-62
2022/11/16 16:34:30;;;;;;;12.77;11.40;;;;;;;;;;10026528;28;20416;-62
2022/11/16 16:39:25;;;;;;;13.38;12.07;;;;;;;;;;10028067;28;20484;-62
2022/11/16 16:44:20;;;;;;;14.18;12.73;;;;;;;;;;10041491;28;20077;-62
2022/11/16 16:49:17;;;;;;;13.45;12.05;;;;;;;;;;10038367;28;20065;-62
2022/11/16 16:54:13;;;;;;;14.15;11.90;;;;;;;;;;10032673;28;20050;-62
2022/11/16 16:59:07;;;;;;;15.30;13.50;;;;;;;;;;10037275;28;20108;-62
2022/11/16 17:04:01;;;;;;;17.35;13.85;;;;;;;;;;10034509;28;20121;-61
2022/11/16 17:08:55;;;;;;;14.73;12.70;;;;;;;;;;10042663;28;20526;-61
2022/11/16 17:13:50;;;;;;;14.82;13.05;;;;;;;;;;10033332;28;20096;-62
2022/11/16 17:18:46;;;;;;;19.35;15.88;;;;;;;;;;10030874;28;20045;-62
2022/11/16 17:23:39;;;;;;;15.43;12.70;;;;;;;;;;10030267;28;20046;-62
2022/11/16 17:28:34;;;;;;;16.48;12.82;;;;;;;;;;10030182;28;20607;-62
2022/11/16 17:33:28;;;;;;;15.05;12.77;;;;;;;;;;10031981;28;20077;-63
2022/11/16 17:38:21;;;;;;;15.68;13.02;;;;;;;;;;10030681;28;20464;-62
2022/11/16 17:43:15;;;;;;;17.08;13.45;;;;;;;;;;10035546;28;20419;-63
2022/11/16 17:48:09;;;;;;;15.25;12.52;;;;;;;;;;10034140;28;20046;-61
2022/11/16 17:53:05;;;;;;;17.05;12.20;;;;;;;;;;10034214;28;20455;-63
2022/11/16 17:58:00;;;;;;;15.93;12.63;;;;;;;;;;10046788;28;20065;-62
2022/11/16 18:02:54;;;;;;;17.08;14.18;;;;;;;;;;10035588;28;20066;-63
2022/11/16 18:07:48;;;;;;;19.58;13.55;;;;;;;;;;10035766;28;20507;-62
2022/11/16 18:12:42;;;;;;;45.35;15.57;;;;;;;;;;10041157;28;20117;-62
2022/11/16 18:17:36;;;;;;;20.33;13.73;;;;;;;;;;10037291;28;20072;-63
2022/11/16 18:22:30;;;;;;;18.38;14.73;;;;;;;;;;10032994;28;20050;-62
2022/11/16 18:27:24;;;;;;;18.23;14.13;;;;;;;;;;10033614;28;20177;-62
2022/11/16 18:32:18;;;;;;;18.38;15.05;;;;;;;;;;10032022;28;20100;-62
2022/11/16 18:37:12;;;;;;;18.20;16.35;;;;;;;;;;10028991;28;20393;-62
2022/11/16 18:42:07;;;;;;;20.67;15.85;;;;;;;;;;10037009;28;20064;-63
2022/11/16 18:47:01;;;;;;;17.85;15.30;;;;;;;;;;10040025;28;20049;-63
2022/11/16 18:51:56;;;;;;;16.75;13.60;;;;;;;;;;10042055;28;20056;-63
2022/11/16 18:56:50;;;;;;;16.77;14.65;;;;;;;;;;10027092;28;20053;-61
2022/11/16 19:01:44;;;;;;;18.42;15.48;;;;;;;;;;10026862;28;20688;-62
2022/11/16 19:06:38;;;;;;;18.15;14.10;;;;;;;;;;10029337;28;20048;-61
2022/11/16 19:11:32;;;;;;;15.00;13.38;;;;;;;;;;10039087;28;20077;-62
2022/11/16 19:16:26;;;;;;;17.40;13.80;;;;;;;;;;10032038;28;20057;-62
2022/11/16 19:21:20;;;;;;;14.93;13.30;;;;;;;;;;10024687;28;20058;-61
2022/11/16 19:26:16;;;;;;;16.27;13.30;;;;;;;;;;10027727;28;20077;-60
2022/11/16 19:31:10;;;;;;;17.45;13.75;;;;;;;;;;10032992;28;20050;-61
2022/11/16 19:36:08;;;;;;;18.40;14.10;;;;;;;;;;10034008;28;20084;-60
2022/11/16 19:41:02;;;;;;;14.50;12.93;;;;;;;;;;10036808;28;20058;-61
2022/11/16 19:45:57;;;;;;;15.95;13.63;;;;;;;;;;10023359;28;20060;-61
2022/11/16 19:50:50;;;;;;;16.25;13.35;;;;;;;;;;10021304;28;20065;-67
2022/11/16 19:55:53;;;;;;;28.67;24.65;;;;;;;;;;10024933;28;20042;-60
2022/11/16 20:00:47;;;;;;;27.17;23.00;;;;;;;;;;10023090;28;20053;-60
2022/11/16 20:05:41;;;;;;;18.13;16.25;;;;;;;;;;10024778;28;20046;-62
2022/11/16 20:10:34;;;;;;;15.95;14.27;;;;;;;;;;10024846;28;20049;-61
2022/11/16 20:15:28;;;;;;;16.23;14.52;;;;;;;;;;10024297;28;20125;-61
2022/11/16 20:20:22;;;;;;;16.63;13.88;;;;;;;;;;10030479;28;20050;-61
2022/11/16 20:25:16;;;;;;;19.05;16.52;;;;;;;;;;10032091;28;20078;-62
2022/11/16 20:30:13;;;;;;;22.80;16.75;;;;;;;;;;10032105;28;20057;-62
2022/11/16 20:35:07;;;;;;;21.92;15.88;;;;;;;;;;10030924;28;20045;-62
2022/11/16 20:40:01;;;;;;;17.23;14.68;;;;;;;;;;10030798;28;20057;-62
2022/11/16 20:44:56;;;;;;;18.05;14.55;;;;;;;;;;10032298;28;20057;-61
2022/11/16 20:49:50;;;;;;;18.05;14.60;;;;;;;;;;10032236;28;20093;-62
2022/11/16 20:54:45;;;;;;;17.40;15.25;;;;;;;;;;10034588;28;20566;-61
2022/11/16 20:59:39;;;;;;;26.60;19.38;;;;;;;;;;10036318;28;20501;-62
2022/11/16 21:04:33;;;;;;;25.25;18.77;;;;;;;;;;10041516;28;20424;-62
2022/11/16 21:10:16;;;;;;;23.73;17.13;;;;;;;;;;10034860;28;20068;-60
2022/11/16 21:14:41;;;;;;;17.98;14.35;;;;;;;;;;10033996;28;20514;-61
2022/11/16 21:19:35;;;;;;;19.00;14.43;;;;;;;;;;10036818;28;20045;-62
2022/11/16 21:24:31;;;;;;;15.93;14.25;;;;;;;;;;10039264;28;20069;-61
2022/11/16 21:29:26;;;;;;;20.70;15.90;;;;;;;;;;10033443;28;20062;-62
2022/11/16 21:34:19;;;;;;;18.17;15.43;;;;;;;;;;10031873;28;20050;-63
2022/11/16 21:39:13;;;;;;;18.08;14.20;;;;;;;;;;10032548;28;20081;-64
2022/11/16 21:44:07;;;;;;;18.30;15.45;;;;;;;;;;10038497;28;20070;-62
2022/11/16 21:49:02;;;;;;;19.75;15.43;;;;;;;;;;10027906;28;20124;-63
2022/11/16 21:53:55;;;;;;;17.95;14.82;;;;;;;;;;10023105;28;20432;-63
2022/11/16 21:58:49;;;;;;;23.15;16.73;;;;;;;;;;10029810;28;20420;-63
2022/11/16 22:03:43;;;;;;;20.17;17.42;;;;;;;;;;10035363;28;20100;-63
2022/11/16 22:08:37;;;;;;;21.83;16.15;;;;;;;;;;10033399;28;20057;-63
2022/11/16 22:13:32;;;;;;;19.13;15.93;;;;;;;;;;10038601;28;20082;-63
2022/11/16 22:18:28;;;;;;;20.45;16.63;;;;;;;;;;10030183;28;20052;-63
2022/11/16 22:23:22;;;;;;;19.83;17.27;;;;;;;;;;10029346;28;20467;-64
2022/11/16 22:28:17;;;;;;;20.73;17.08;;;;;;;;;;10032216;28;20085;-63
2022/11/16 22:33:13;;;;;;;19.83;17.02;;;;;;;;;;10029977;28;20058;-63
2022/11/16 22:38:09;;;;;;;19.35;16.90;;;;;;;;;;10043913;28;20049;-64
2022/11/16 22:43:03;;;;;;;18.83;16.42;;;;;;;;;;10040030;28;20073;-63
2022/11/16 22:47:57;;;;;;;19.65;15.77;;;;;;;;;;10035034;28;20101;-63
2022/11/16 22:52:52;;;;;;;18.38;14.57;;;;;;;;;;10029779;28;20141;-63
2022/11/16 22:57:46;;;;;;;17.50;12.50;;;;;;;;;;10043947;28;20411;-63
2022/11/16 23:02:40;;;;;;;16.55;13.30;;;;;;;;;;10034545;28;20053;-63
2022/11/16 23:07:34;;;;;;;16.98;13.20;;;;;;;;;;10028714;28;20057;-64
2022/11/16 23:17:41;;;;;;;17.23;13.85;;;;;;;;;;10028020;28;20464;-64
2022/11/16 23:27:54;;;;;;;21.98;16.20;;;;;;;;;;10032781;28;20049;-64
2022/11/16 23:32:47;;;;;;;16.30;14.60;;;;;;;;;;10035454;28;20096;-64
2022/11/16 23:37:55;;;;;;;17.42;14.88;;;;;;;;;;10029282;28;20454;-63
2022/11/16 23:48:00;;;;;;;16.70;14.73;;;;;;;;;;10026010;28;20054;-63
2022/11/16 23:52:53;;;;;;;16.27;14.18;;;;;;;;;;10033778;28;20076;-63
2022/11/16 23:57:47;;;;;;;17.48;14.00;;;;;;;;;;10038687;28;20452;-63
